sensor_id;sensor_type;location;lat;lon;timestamp;temperature;humidity
41469;DHT22;27206;47.032;15.484;2022-08-30T00:00:42;18.20;99.90
41469;DHT22;27206;47.032;15.484;2022-08-30T00:03:27;18.20;99.90
41469;DHT22;27206;47.032;15.484;2022-08-30T00:05:53;18.20;99.90
41469;DHT22;27206;47.032;15.484;2022-08-30T00:08:19;18.10;99.90
41469;DHT22;27206;47.032;15.484;2022-08-30T00:10:45;18.10;99.90
41469;DHT22;27206;47.032;15.484;2022-08-30T00:13:12;18.10;99.90
41469;DHT22;27206;47.032;15.484;2022-08-30T00:15:40;18.10;99.90
41469;DHT22;27206;47.032;15.484;2022-08-30T00:18:06;18.10;99.90
41469;DHT22;27206;47.032;15.484;2022-08-30T00:20:33;18.10;99.90
41469;DHT22;27206;47.032;15.484;2022-08-30T00:22:59;18.00;99.90
41469;DHT22;27206;47.032;15.484;2022-08-30T00:25:26;18.00;99.90
41469;DHT22;27206;47.032;15.484;2022-08-30T00:27:52;17.90;99.90
41469;DHT22;27206;47.032;15.484;2022-08-30T00:30:18;17.90;99.90
41469;DHT22;27206;47.032;15.484;2022-08-30T00:32:44;17.90;99.90
41469;DHT22;27206;47.032;15.484;2022-08-30T00:35:13;17.90;99.90
41469;DHT22;27206;47.032;15.484;2022-08-30T00:37:39;17.90;99.90
41469;DHT22;27206;47.032;15.484;2022-08-30T00:40:07;17.90;99.90
41469;DHT22;27206;47.032;15.484;2022-08-30T00:42:34;17.80;99.90
41469;DHT22;27206;47.032;15.484;2022-08-30T00:45:00;17.70;99.90
41469;DHT22;27206;47.032;15.484;2022-08-30T00:47:26;17.80;99.90
41469;DHT22;27206;47.032;15.484;2022-08-30T00:49:55;17.80;99.90
41469;DHT22;27206;47.032;15.484;2022-08-30T00:52:22;17.80;99.90
41469;DHT22;27206;47.032;15.484;2022-08-30T00:54:49;17.80;99.90
41469;DHT22;27206;47.032;15.484;2022-08-30T00:57:16;17.80;99.90
41469;DHT22;27206;47.032;15.484;2022-08-30T00:59:47;17.70;99.90
41469;DHT22;27206;47.032;15.484;2022-08-30T01:02:15;17.70;99.90
41469;DHT22;27206;47.032;15.484;2022-08-30T01:04:43;17.70;99.90
41469;DHT22;27206;47.032;15.484;2022-08-30T01:07:09;17.70;99.90
41469;DHT22;27206;47.032;15.484;2022-08-30T01:09:36;17.70;99.90
41469;DHT22;27206;47.032;15.484;2022-08-30T01:12:03;17.70;99.90
41469;DHT22;27206;47.032;15.484;2022-08-30T01:14:31;17.70;99.90
41469;DHT22;27206;47.032;15.484;2022-08-30T01:16:58;17.70;99.90
41469;DHT22;27206;47.032;15.484;2022-08-30T01:19:52;17.60;99.90
41469;DHT22;27206;47.032;15.484;2022-08-30T01:25:18;17.50;99.90
41469;DHT22;27206;47.032;15.484;2022-08-30T01:27:52;17.50;99.90
41469;DHT22;27206;47.032;15.484;2022-08-30T01:30:18;17.40;99.90
41469;DHT22;27206;47.032;15.484;2022-08-30T01:32:46;17.40;99.90
41469;DHT22;27206;47.032;15.484;2022-08-30T01:35:15;17.40;99.90
41469;DHT22;27206;47.032;15.484;2022-08-30T01:37:42;17.40;99.90
41469;DHT22;27206;47.032;15.484;2022-08-30T01:40:09;17.40;99.90
41469;DHT22;27206;47.032;15.484;2022-08-30T01:42:35;17.30;99.90
41469;DHT22;27206;47.032;15.484;2022-08-30T01:45:02;17.30;99.90
41469;DHT22;27206;47.032;15.484;2022-08-30T01:47:28;17.30;99.90
41469;DHT22;27206;47.032;15.484;2022-08-30T01:49:54;17.30;99.90
41469;DHT22;27206;47.032;15.484;2022-08-30T01:52:20;17.30;99.90
41469;DHT22;27206;47.032;15.484;2022-08-30T01:54:46;17.20;99.90
41469;DHT22;27206;47.032;15.484;2022-08-30T01:57:14;17.20;99.90
41469;DHT22;27206;47.032;15.484;2022-08-30T01:59:42;17.20;99.90
41469;DHT22;27206;47.032;15.484;2022-08-30T02:02:13;17.20;99.90
41469;DHT22;27206;47.032;15.484;2022-08-30T02:04:41;17.20;99.90
41469;DHT22;27206;47.032;15.484;2022-08-30T02:07:06;17.10;99.90
41469;DHT22;27206;47.032;15.484;2022-08-30T02:09:32;17.10;99.90
41469;DHT22;27206;47.032;15.484;2022-08-30T02:11:58;17.20;99.90
41469;DHT22;27206;47.032;15.484;2022-08-30T02:14:24;17.20;99.90
41469;DHT22;27206;47.032;15.484;2022-08-30T02:16:50;17.20;99.90
41469;DHT22;27206;47.032;15.484;2022-08-30T02:19:15;17.20;99.90
41469;DHT22;27206;47.032;15.484;2022-08-30T02:21:42;17.20;99.90
41469;DHT22;27206;47.032;15.484;2022-08-30T02:24:08;17.20;99.90
41469;DHT22;27206;47.032;15.484;2022-08-30T02:26:33;17.20;99.90
41469;DHT22;27206;47.032;15.484;2022-08-30T02:29:01;17.20;99.90
41469;DHT22;27206;47.032;15.484;2022-08-30T02:31:27;17.20;99.90
41469;DHT22;27206;47.032;15.484;2022-08-30T02:33:53;17.20;99.90
41469;DHT22;27206;47.032;15.484;2022-08-30T02:36:20;17.10;99.90
41469;DHT22;27206;47.032;15.484;2022-08-30T02:38:46;17.20;99.90
41469;DHT22;27206;47.032;15.484;2022-08-30T02:41:12;17.30;99.90
41469;DHT22;27206;47.032;15.484;2022-08-30T02:43:38;17.30;99.90
41469;DHT22;27206;47.032;15.484;2022-08-30T02:46:04;17.30;99.90
41469;DHT22;27206;47.032;15.484;2022-08-30T02:48:29;17.30;99.90
41469;DHT22;27206;47.032;15.484;2022-08-30T02:50:55;17.30;99.90
41469;DHT22;27206;47.032;15.484;2022-08-30T02:53:21;17.20;99.90
41469;DHT22;27206;47.032;15.484;2022-08-30T02:55:47;17.20;99.90
41469;DHT22;27206;47.032;15.484;2022-08-30T02:58:14;17.20;99.90
41469;DHT22;27206;47.032;15.484;2022-08-30T03:00:40;17.20;99.90
41469;DHT22;27206;47.032;15.484;2022-08-30T03:03:06;17.20;99.90
41469;DHT22;27206;47.032;15.484;2022-08-30T03:05:32;17.10;99.90
41469;DHT22;27206;47.032;15.484;2022-08-30T03:07:58;17.10;99.90
41469;DHT22;27206;47.032;15.484;2022-08-30T03:10:25;17.10;99.90
41469;DHT22;27206;47.032;15.484;2022-08-30T03:12:52;17.10;99.90
41469;DHT22;27206;47.032;15.484;2022-08-30T03:15:19;17.10;99.90
41469;DHT22;27206;47.032;15.484;2022-08-30T03:17:44;17.10;99.90
41469;DHT22;27206;47.032;15.484;2022-08-30T03:20:11;17.10;99.90
41469;DHT22;27206;47.032;15.484;2022-08-30T03:22:37;17.00;99.90
41469;DHT22;27206;47.032;15.484;2022-08-30T03:25:03;16.90;99.90
41469;DHT22;27206;47.032;15.484;2022-08-30T03:27:29;16.90;99.90
41469;DHT22;27206;47.032;15.484;2022-08-30T03:29:55;16.90;99.90
41469;DHT22;27206;47.032;15.484;2022-08-30T03:32:21;16.90;99.90
41469;DHT22;27206;47.032;15.484;2022-08-30T03:34:47;16.90;99.90
41469;DHT22;27206;47.032;15.484;2022-08-30T03:37:13;16.90;99.90
41469;DHT22;27206;47.032;15.484;2022-08-30T03:39:39;16.80;99.90
41469;DHT22;27206;47.032;15.484;2022-08-30T03:42:05;16.80;99.90
41469;DHT22;27206;47.032;15.484;2022-08-30T03:44:31;16.80;99.90
41469;DHT22;27206;47.032;15.484;2022-08-30T03:46:56;16.70;99.90
41469;DHT22;27206;47.032;15.484;2022-08-30T03:49:22;16.80;99.90
41469;DHT22;27206;47.032;15.484;2022-08-30T03:51:49;16.70;99.90
41469;DHT22;27206;47.032;15.484;2022-08-30T03:54:14;16.70;99.90
41469;DHT22;27206;47.032;15.484;2022-08-30T03:56:40;16.60;99.90
41469;DHT22;27206;47.032;15.484;2022-08-30T03:59:06;16.60;99.90
41469;DHT22;27206;47.032;15.484;2022-08-30T04:01:32;16.60;99.90
41469;DHT22;27206;47.032;15.484;2022-08-30T04:03:58;16.60;99.90
41469;DHT22;27206;47.032;15.484;2022-08-30T04:06:24;16.40;99.90
41469;DHT22;27206;47.032;15.484;2022-08-30T04:08:50;16.40;99.90
41469;DHT22;27206;47.032;15.484;2022-08-30T04:11:15;16.50;99.90
41469;DHT22;27206;47.032;15.484;2022-08-30T04:13:42;16.50;99.90
41469;DHT22;27206;47.032;15.484;2022-08-30T04:16:08;16.50;99.90
41469;DHT22;27206;47.032;15.484;2022-08-30T04:18:34;16.50;99.90
41469;DHT22;27206;47.032;15.484;2022-08-30T04:21:01;16.50;99.90
41469;DHT22;27206;47.032;15.484;2022-08-30T04:23:27;16.40;99.90
41469;DHT22;27206;47.032;15.484;2022-08-30T04:25:53;16.40;99.90
41469;DHT22;27206;47.032;15.484;2022-08-30T04:28:19;16.40;99.90
41469;DHT22;27206;47.032;15.484;2022-08-30T04:30:45;16.40;99.90
41469;DHT22;27206;47.032;15.484;2022-08-30T04:33:11;16.50;99.90
41469;DHT22;27206;47.032;15.484;2022-08-30T04:35:41;16.40;99.90
41469;DHT22;27206;47.032;15.484;2022-08-30T04:38:07;16.40;99.90
41469;DHT22;27206;47.032;15.484;2022-08-30T04:40:33;16.40;99.90
41469;DHT22;27206;47.032;15.484;2022-08-30T04:43:00;16.30;99.90
41469;DHT22;27206;47.032;15.484;2022-08-30T04:45:26;16.40;99.90
41469;DHT22;27206;47.032;15.484;2022-08-30T04:47:52;16.30;99.90
41469;DHT22;27206;47.032;15.484;2022-08-30T04:50:19;16.20;99.90
41469;DHT22;27206;47.032;15.484;2022-08-30T04:52:45;16.30;99.90
41469;DHT22;27206;47.032;15.484;2022-08-30T04:55:12;16.40;99.90
41469;DHT22;27206;47.032;15.484;2022-08-30T04:57:38;16.40;99.90
41469;DHT22;27206;47.032;15.484;2022-08-30T05:00:10;16.40;99.90
41469;DHT22;27206;47.032;15.484;2022-08-30T05:02:37;16.40;99.90
41469;DHT22;27206;47.032;15.484;2022-08-30T05:05:03;16.40;99.90
41469;DHT22;27206;47.032;15.484;2022-08-30T05:07:48;16.40;99.90
41469;DHT22;27206;47.032;15.484;2022-08-30T05:10:13;16.50;99.90
41469;DHT22;27206;47.032;15.484;2022-08-30T05:12:40;16.50;99.90
41469;DHT22;27206;47.032;15.484;2022-08-30T05:15:06;16.50;99.90
41469;DHT22;27206;47.032;15.484;2022-08-30T05:17:32;16.60;99.90
41469;DHT22;27206;47.032;15.484;2022-08-30T05:20:00;16.60;99.90
41469;DHT22;27206;47.032;15.484;2022-08-30T05:22:26;16.70;99.90
41469;DHT22;27206;47.032;15.484;2022-08-30T05:24:52;16.80;99.90
41469;DHT22;27206;47.032;15.484;2022-08-30T05:27:18;16.80;99.90
41469;DHT22;27206;47.032;15.484;2022-08-30T05:29:43;16.80;99.90
41469;DHT22;27206;47.032;15.484;2022-08-30T05:32:09;17.00;99.90
41469;DHT22;27206;47.032;15.484;2022-08-30T05:34:35;17.40;99.90
41469;DHT22;27206;47.032;15.484;2022-08-30T05:37:01;17.30;99.90
41469;DHT22;27206;47.032;15.484;2022-08-30T05:39:28;17.30;99.90
41469;DHT22;27206;47.032;15.484;2022-08-30T05:41:57;17.30;99.90
41469;DHT22;27206;47.032;15.484;2022-08-30T05:44:23;17.30;99.90
41469;DHT22;27206;47.032;15.484;2022-08-30T05:46:49;17.40;99.90
41469;DHT22;27206;47.032;15.484;2022-08-30T05:49:15;17.40;99.90
41469;DHT22;27206;47.032;15.484;2022-08-30T05:51:42;17.50;99.90
41469;DHT22;27206;47.032;15.484;2022-08-30T05:54:08;17.60;99.90
41469;DHT22;27206;47.032;15.484;2022-08-30T05:56:36;17.70;99.90
41469;DHT22;27206;47.032;15.484;2022-08-30T05:59:04;17.70;99.90
41469;DHT22;27206;47.032;15.484;2022-08-30T06:01:38;17.80;99.90
41469;DHT22;27206;47.032;15.484;2022-08-30T06:04:06;17.90;99.90
41469;DHT22;27206;47.032;15.484;2022-08-30T06:06:34;18.00;99.90
41469;DHT22;27206;47.032;15.484;2022-08-30T06:09:01;18.10;99.90
41469;DHT22;27206;47.032;15.484;2022-08-30T06:11:27;18.20;88.50
41469;DHT22;27206;47.032;15.484;2022-08-30T06:13:54;18.30;53.20
41469;DHT22;27206;47.032;15.484;2022-08-30T06:16:22;18.40;84.00
41469;DHT22;27206;47.032;15.484;2022-08-30T06:18:48;18.40;3.10
41469;DHT22;27206;47.032;15.484;2022-08-30T06:21:18;18.50;6.20
41469;DHT22;27206;47.032;15.484;2022-08-30T06:23:45;18.50;16.60
41469;DHT22;27206;47.032;15.484;2022-08-30T06:26:11;18.50;17.50
41469;DHT22;27206;47.032;15.484;2022-08-30T06:28:37;18.40;16.80
41469;DHT22;27206;47.032;15.484;2022-08-30T06:31:07;18.50;17.50
41469;DHT22;27206;47.032;15.484;2022-08-30T06:33:33;18.40;9.00
41469;DHT22;27206;47.032;15.484;2022-08-30T06:36:08;18.40;10.60
41469;DHT22;27206;47.032;15.484;2022-08-30T06:38:34;18.50;18.60
41469;DHT22;27206;47.032;15.484;2022-08-30T06:41:14;18.50;1.00
41469;DHT22;27206;47.032;15.484;2022-08-30T06:43:41;18.60;1.00
41469;DHT22;27206;47.032;15.484;2022-08-30T06:46:12;18.70;1.00
41469;DHT22;27206;47.032;15.484;2022-08-30T06:48:39;18.70;1.00
41469;DHT22;27206;47.032;15.484;2022-08-30T06:51:05;18.70;1.00
41469;DHT22;27206;47.032;15.484;2022-08-30T06:53:31;18.70;1.00
41469;DHT22;27206;47.032;15.484;2022-08-30T06:56:06;18.80;1.00
41469;DHT22;27206;47.032;15.484;2022-08-30T06:58:33;18.80;1.00
41469;DHT22;27206;47.032;15.484;2022-08-30T07:00:59;18.80;1.00
41469;DHT22;27206;47.032;15.484;2022-08-30T07:03:25;18.90;1.00
41469;DHT22;27206;47.032;15.484;2022-08-30T07:05:55;19.00;1.00
41469;DHT22;27206;47.032;15.484;2022-08-30T07:08:21;19.10;1.00
41469;DHT22;27206;47.032;15.484;2022-08-30T07:10:48;19.20;1.00
41469;DHT22;27206;47.032;15.484;2022-08-30T07:13:14;19.30;1.00
41469;DHT22;27206;47.032;15.484;2022-08-30T07:15:41;19.40;1.00
41469;DHT22;27206;47.032;15.484;2022-08-30T07:18:08;19.50;1.00
41469;DHT22;27206;47.032;15.484;2022-08-30T07:20:52;19.60;1.00
41469;DHT22;27206;47.032;15.484;2022-08-30T07:23:18;19.70;1.00
41469;DHT22;27206;47.032;15.484;2022-08-30T07:25:44;19.80;1.00
41469;DHT22;27206;47.032;15.484;2022-08-30T07:28:10;19.90;1.00
41469;DHT22;27206;47.032;15.484;2022-08-30T07:30:37;20.00;1.00
41469;DHT22;27206;47.032;15.484;2022-08-30T07:33:03;20.10;1.00
41469;DHT22;27206;47.032;15.484;2022-08-30T07:35:29;20.10;1.00
41469;DHT22;27206;47.032;15.484;2022-08-30T07:37:56;20.20;1.00
41469;DHT22;27206;47.032;15.484;2022-08-30T07:40:23;20.30;1.00
41469;DHT22;27206;47.032;15.484;2022-08-30T07:42:49;20.50;1.00
41469;DHT22;27206;47.032;15.484;2022-08-30T07:45:15;20.50;1.00
41469;DHT22;27206;47.032;15.484;2022-08-30T07:47:41;20.50;1.00
41469;DHT22;27206;47.032;15.484;2022-08-30T07:50:07;20.70;1.00
41469;DHT22;27206;47.032;15.484;2022-08-30T07:52:33;20.80;1.00
41469;DHT22;27206;47.032;15.484;2022-08-30T07:54:59;20.90;1.00
41469;DHT22;27206;47.032;15.484;2022-08-30T07:57:25;21.20;1.00
41469;DHT22;27206;47.032;15.484;2022-08-30T07:59:51;21.30;1.00
41469;DHT22;27206;47.032;15.484;2022-08-30T08:02:17;21.40;1.00
41469;DHT22;27206;47.032;15.484;2022-08-30T08:04:43;21.60;1.00
41469;DHT22;27206;47.032;15.484;2022-08-30T08:07:10;21.60;1.00
41469;DHT22;27206;47.032;15.484;2022-08-30T08:09:37;21.80;1.00
41469;DHT22;27206;47.032;15.484;2022-08-30T08:12:04;21.90;1.00
41469;DHT22;27206;47.032;15.484;2022-08-30T08:14:30;22.00;1.00
41469;DHT22;27206;47.032;15.484;2022-08-30T08:16:56;22.10;1.00
41469;DHT22;27206;47.032;15.484;2022-08-30T08:19:22;22.20;1.00
41469;DHT22;27206;47.032;15.484;2022-08-30T08:21:48;22.10;1.00
41469;DHT22;27206;47.032;15.484;2022-08-30T08:24:14;22.30;1.00
41469;DHT22;27206;47.032;15.484;2022-08-30T08:26:39;22.60;1.00
41469;DHT22;27206;47.032;15.484;2022-08-30T08:29:08;22.80;1.00
41469;DHT22;27206;47.032;15.484;2022-08-30T08:31:34;22.90;1.00
41469;DHT22;27206;47.032;15.484;2022-08-30T08:34:01;22.80;1.00
41469;DHT22;27206;47.032;15.484;2022-08-30T08:36:30;23.00;1.00
41469;DHT22;27206;47.032;15.484;2022-08-30T08:38:57;23.00;1.00
41469;DHT22;27206;47.032;15.484;2022-08-30T08:44:37;23.30;1.00
41469;DHT22;27206;47.032;15.484;2022-08-30T08:47:57;23.40;1.00
41469;DHT22;27206;47.032;15.484;2022-08-30T08:50:08;23.80;1.00
41469;DHT22;27206;47.032;15.484;2022-08-30T08:55:33;23.80;1.00
41469;DHT22;27206;47.032;15.484;2022-08-30T08:58:00;23.90;1.00
41469;DHT22;27206;47.032;15.484;2022-08-30T09:00:26;23.90;1.00
41469;DHT22;27206;47.032;15.484;2022-08-30T09:02:59;24.10;1.00
41469;DHT22;27206;47.032;15.484;2022-08-30T09:05:33;24.20;1.00
41469;DHT22;27206;47.032;15.484;2022-08-30T09:08:02;24.20;1.00
41469;DHT22;27206;47.032;15.484;2022-08-30T09:10:31;24.40;1.00
41469;DHT22;27206;47.032;15.484;2022-08-30T09:12:57;24.40;1.00
41469;DHT22;27206;47.032;15.484;2022-08-30T09:15:26;24.40;1.00
41469;DHT22;27206;47.032;15.484;2022-08-30T09:17:55;24.60;1.00
41469;DHT22;27206;47.032;15.484;2022-08-30T09:20:38;24.80;1.00
41469;DHT22;27206;47.032;15.484;2022-08-30T09:26:01;25.10;1.00
41469;DHT22;27206;47.032;15.484;2022-08-30T09:28:34;25.10;1.00
41469;DHT22;27206;47.032;15.484;2022-08-30T09:31:26;25.10;1.00
41469;DHT22;27206;47.032;15.484;2022-08-30T09:34:01;25.30;1.00
41469;DHT22;27206;47.032;15.484;2022-08-30T09:36:32;25.50;1.00
41469;DHT22;27206;47.032;15.484;2022-08-30T09:39:01;25.90;1.00
41469;DHT22;27206;47.032;15.484;2022-08-30T09:41:37;26.20;1.00
41469;DHT22;27206;47.032;15.484;2022-08-30T09:44:16;26.10;1.00
41469;DHT22;27206;47.032;15.484;2022-08-30T09:46:54;26.40;1.00
41469;DHT22;27206;47.032;15.484;2022-08-30T09:49:41;26.40;1.00
41469;DHT22;27206;47.032;15.484;2022-08-30T10:00:30;26.70;1.00
41469;DHT22;27206;47.032;15.484;2022-08-30T10:03:25;26.70;1.00
41469;DHT22;27206;47.032;15.484;2022-08-30T10:05:57;26.90;1.00
41469;DHT22;27206;47.032;15.484;2022-08-30T10:11:04;27.00;99.90
41469;DHT22;27206;47.032;15.484;2022-08-30T10:13:53;26.90;1.00
41469;DHT22;27206;47.032;15.484;2022-08-30T10:16:41;27.20;1.00
41469;DHT22;27206;47.032;15.484;2022-08-30T10:19:25;27.30;1.00
41469;DHT22;27206;47.032;15.484;2022-08-30T10:22:22;27.30;99.90
41469;DHT22;27206;47.032;15.484;2022-08-30T10:24:52;27.50;1.00
41469;DHT22;27206;47.032;15.484;2022-08-30T10:27:34;27.60;1.00
41469;DHT22;27206;47.032;15.484;2022-08-30T10:30:06;28.00;99.90
41469;DHT22;27206;47.032;15.484;2022-08-30T10:35:17;27.90;99.90
41469;DHT22;27206;47.032;15.484;2022-08-30T10:38:07;27.90;99.90
41469;DHT22;27206;47.032;15.484;2022-08-30T10:40:37;28.10;99.90
41469;DHT22;27206;47.032;15.484;2022-08-30T10:45:55;28.60;99.90
41469;DHT22;27206;47.032;15.484;2022-08-30T10:48:32;28.60;99.90
41469;DHT22;27206;47.032;15.484;2022-08-30T10:51:07;28.70;99.90
41469;DHT22;27206;47.032;15.484;2022-08-30T10:54:14;28.50;99.90
41469;DHT22;27206;47.032;15.484;2022-08-30T10:56:42;28.90;99.90
41469;DHT22;27206;47.032;15.484;2022-08-30T10:59:10;29.00;99.90
41469;DHT22;27206;47.032;15.484;2022-08-30T11:04:34;29.40;99.90
41469;DHT22;27206;47.032;15.484;2022-08-30T11:10:00;29.50;99.90
41469;DHT22;27206;47.032;15.484;2022-08-30T11:12:35;29.90;99.90
41469;DHT22;27206;47.032;15.484;2022-08-30T11:15:19;29.70;99.90
41469;DHT22;27206;47.032;15.484;2022-08-30T11:20:45;31.30;99.90
41469;DHT22;27206;47.032;15.484;2022-08-30T11:31:08;30.60;99.90
41469;DHT22;27206;47.032;15.484;2022-08-30T11:36:07;30.70;99.90
41469;DHT22;27206;47.032;15.484;2022-08-30T11:41:12;30.90;99.90
41469;DHT22;27206;47.032;15.484;2022-08-30T11:43:52;31.10;99.90
41469;DHT22;27206;47.032;15.484;2022-08-30T12:02:45;31.00;99.90
41469;DHT22;27206;47.032;15.484;2022-08-30T12:08:10;30.90;99.90
41469;DHT22;27206;47.032;15.484;2022-08-30T12:16:16;31.20;99.90
41469;DHT22;27206;47.032;15.484;2022-08-30T12:18:53;31.40;99.90
41469;DHT22;27206;47.032;15.484;2022-08-30T12:24:17;30.80;99.90
41469;DHT22;27206;47.032;15.484;2022-08-30T12:26:46;30.90;99.90
41469;DHT22;27206;47.032;15.484;2022-08-30T12:31:54;31.30;99.90
41469;DHT22;27206;47.032;15.484;2022-08-30T12:34:27;31.60;99.90
41469;DHT22;27206;47.032;15.484;2022-08-30T12:39:43;30.90;99.90
41469;DHT22;27206;47.032;15.484;2022-08-30T12:42:22;31.20;99.90
41469;DHT22;27206;47.032;15.484;2022-08-30T12:44:51;31.30;99.90
41469;DHT22;27206;47.032;15.484;2022-08-30T12:47:20;31.20;99.90
41469;DHT22;27206;47.032;15.484;2022-08-30T12:49:47;31.50;99.90
41469;DHT22;27206;47.032;15.484;2022-08-30T12:52:32;31.70;99.90
41469;DHT22;27206;47.032;15.484;2022-08-30T12:55:23;31.30;99.90
41469;DHT22;27206;47.032;15.484;2022-08-30T12:57:59;31.30;99.90
41469;DHT22;27206;47.032;15.484;2022-08-30T13:00:32;31.20;99.90
41469;DHT22;27206;47.032;15.484;2022-08-30T13:03:02;31.20;99.90
41469;DHT22;27206;47.032;15.484;2022-08-30T13:08:30;31.20;99.90
41469;DHT22;27206;47.032;15.484;2022-08-30T13:11:09;31.70;99.90
41469;DHT22;27206;47.032;15.484;2022-08-30T13:16:34;31.90;99.90
41469;DHT22;27206;47.032;15.484;2022-08-30T13:19:15;32.40;99.90
41469;DHT22;27206;47.032;15.484;2022-08-30T13:21:55;32.00;99.90
41469;DHT22;27206;47.032;15.484;2022-08-30T13:24:21;32.00;99.90
41469;DHT22;27206;47.032;15.484;2022-08-30T13:26:47;32.30;99.90
41469;DHT22;27206;47.032;15.484;2022-08-30T13:29:16;31.90;99.90
41469;DHT22;27206;47.032;15.484;2022-08-30T13:31:42;31.90;99.90
41469;DHT22;27206;47.032;15.484;2022-08-30T13:34:08;32.10;99.90
41469;DHT22;27206;47.032;15.484;2022-08-30T13:36:38;32.20;99.90
41469;DHT22;27206;47.032;15.484;2022-08-30T13:39:06;32.50;99.90
41469;DHT22;27206;47.032;15.484;2022-08-30T13:41:32;32.70;99.90
41469;DHT22;27206;47.032;15.484;2022-08-30T13:43:57;32.60;99.90
41469;DHT22;27206;47.032;15.484;2022-08-30T13:46:23;32.70;99.90
41469;DHT22;27206;47.032;15.484;2022-08-30T13:48:59;32.40;99.90
41469;DHT22;27206;47.032;15.484;2022-08-30T13:51:26;31.30;99.90
41469;DHT22;27206;47.032;15.484;2022-08-30T13:53:52;30.40;99.90
41469;DHT22;27206;47.032;15.484;2022-08-30T13:56:17;30.20;99.90
41469;DHT22;27206;47.032;15.484;2022-08-30T13:58:43;30.40;99.90
41469;DHT22;27206;47.032;15.484;2022-08-30T14:01:09;30.70;99.90
41469;DHT22;27206;47.032;15.484;2022-08-30T14:03:34;31.10;99.90
41469;DHT22;27206;47.032;15.484;2022-08-30T14:06:00;30.80;99.90
41469;DHT22;27206;47.032;15.484;2022-08-30T14:08:28;31.10;99.90
41469;DHT22;27206;47.032;15.484;2022-08-30T14:10:54;31.50;99.90
41469;DHT22;27206;47.032;15.484;2022-08-30T14:13:20;31.40;99.90
41469;DHT22;27206;47.032;15.484;2022-08-30T14:15:45;30.60;99.90
41469;DHT22;27206;47.032;15.484;2022-08-30T14:18:13;30.70;99.90
41469;DHT22;27206;47.032;15.484;2022-08-30T14:20:39;31.20;99.90
41469;DHT22;27206;47.032;15.484;2022-08-30T14:23:05;31.30;99.90
41469;DHT22;27206;47.032;15.484;2022-08-30T14:25:31;30.50;99.90
41469;DHT22;27206;47.032;15.484;2022-08-30T14:27:57;29.70;99.90
41469;DHT22;27206;47.032;15.484;2022-08-30T14:30:24;29.30;99.90
41469;DHT22;27206;47.032;15.484;2022-08-30T14:32:49;29.20;99.90
41469;DHT22;27206;47.032;15.484;2022-08-30T14:35:16;29.20;99.90
41469;DHT22;27206;47.032;15.484;2022-08-30T14:37:44;29.50;99.90
41469;DHT22;27206;47.032;15.484;2022-08-30T14:40:14;29.30;99.90
41469;DHT22;27206;47.032;15.484;2022-08-30T14:42:40;28.90;99.90
41469;DHT22;27206;47.032;15.484;2022-08-30T14:45:07;29.20;99.90
41469;DHT22;27206;47.032;15.484;2022-08-30T14:47:32;29.10;99.90
41469;DHT22;27206;47.032;15.484;2022-08-30T14:49:58;29.00;99.90
41469;DHT22;27206;47.032;15.484;2022-08-30T14:52:27;29.30;99.90
41469;DHT22;27206;47.032;15.484;2022-08-30T14:54:52;29.70;99.90
41469;DHT22;27206;47.032;15.484;2022-08-30T14:57:18;30.00;99.90
41469;DHT22;27206;47.032;15.484;2022-08-30T14:59:44;29.60;99.90
41469;DHT22;27206;47.032;15.484;2022-08-30T15:02:09;29.70;99.90
41469;DHT22;27206;47.032;15.484;2022-08-30T15:04:35;29.80;99.90
41469;DHT22;27206;47.032;15.484;2022-08-30T15:07:01;29.90;99.90
41469;DHT22;27206;47.032;15.484;2022-08-30T15:09:27;29.80;99.90
41469;DHT22;27206;47.032;15.484;2022-08-30T15:11:55;29.70;99.90
41469;DHT22;27206;47.032;15.484;2022-08-30T15:14:21;29.40;99.90
41469;DHT22;27206;47.032;15.484;2022-08-30T15:16:47;29.60;99.90
41469;DHT22;27206;47.032;15.484;2022-08-30T15:19:13;29.90;99.90
41469;DHT22;27206;47.032;15.484;2022-08-30T15:21:44;30.10;99.90
41469;DHT22;27206;47.032;15.484;2022-08-30T15:24:13;30.20;99.90
41469;DHT22;27206;47.032;15.484;2022-08-30T15:26:39;30.30;99.90
41469;DHT22;27206;47.032;15.484;2022-08-30T15:29:12;30.30;99.90
41469;DHT22;27206;47.032;15.484;2022-08-30T15:31:38;30.30;99.90
41469;DHT22;27206;47.032;15.484;2022-08-30T15:34:06;30.20;99.90
41469;DHT22;27206;47.032;15.484;2022-08-30T15:36:32;30.10;99.90
41469;DHT22;27206;47.032;15.484;2022-08-30T15:38:57;30.00;99.90
41469;DHT22;27206;47.032;15.484;2022-08-30T15:41:24;29.90;99.90
41469;DHT22;27206;47.032;15.484;2022-08-30T15:43:50;29.50;99.90
41469;DHT22;27206;47.032;15.484;2022-08-30T15:48:51;29.30;99.90
41469;DHT22;27206;47.032;15.484;2022-08-30T15:51:18;29.50;99.90
41469;DHT22;27206;47.032;15.484;2022-08-30T15:53:44;29.70;99.90
41469;DHT22;27206;47.032;15.484;2022-08-30T15:56:11;29.70;99.90
41469;DHT22;27206;47.032;15.484;2022-08-30T15:58:37;29.30;99.90
41469;DHT22;27206;47.032;15.484;2022-08-30T16:01:04;28.90;99.90
41469;DHT22;27206;47.032;15.484;2022-08-30T16:03:31;28.50;99.90
41469;DHT22;27206;47.032;15.484;2022-08-30T16:05:57;28.30;99.90
41469;DHT22;27206;47.032;15.484;2022-08-30T16:08:23;28.10;99.90
41469;DHT22;27206;47.032;15.484;2022-08-30T16:10:49;27.90;99.90
41469;DHT22;27206;47.032;15.484;2022-08-30T16:13:15;27.70;99.90
41469;DHT22;27206;47.032;15.484;2022-08-30T16:15:41;27.60;99.90
41469;DHT22;27206;47.032;15.484;2022-08-30T16:18:11;27.40;99.90
41469;DHT22;27206;47.032;15.484;2022-08-30T16:20:40;27.30;99.90
41469;DHT22;27206;47.032;15.484;2022-08-30T16:23:06;27.10;99.90
41469;DHT22;27206;47.032;15.484;2022-08-30T16:25:32;26.90;99.90
41469;DHT22;27206;47.032;15.484;2022-08-30T16:27:58;27.00;99.90
41469;DHT22;27206;47.032;15.484;2022-08-30T16:30:24;27.10;99.90
41469;DHT22;27206;47.032;15.484;2022-08-30T16:32:50;27.10;99.90
41469;DHT22;27206;47.032;15.484;2022-08-30T16:35:15;26.90;99.90
41469;DHT22;27206;47.032;15.484;2022-08-30T16:37:41;26.70;99.90
41469;DHT22;27206;47.032;15.484;2022-08-30T16:40:07;26.70;99.90
41469;DHT22;27206;47.032;15.484;2022-08-30T16:42:33;26.50;99.90
41469;DHT22;27206;47.032;15.484;2022-08-30T16:44:59;26.30;99.90
41469;DHT22;27206;47.032;15.484;2022-08-30T16:47:25;26.30;99.90
41469;DHT22;27206;47.032;15.484;2022-08-30T16:49:50;26.30;99.90
41469;DHT22;27206;47.032;15.484;2022-08-30T16:52:16;26.00;99.90
41469;DHT22;27206;47.032;15.484;2022-08-30T16:54:43;25.90;99.90
41469;DHT22;27206;47.032;15.484;2022-08-30T16:57:09;25.80;1.00
41469;DHT22;27206;47.032;15.484;2022-08-30T16:59:35;25.70;1.00